createdAt,value
2017-09-17T00:00:47.067Z,1.00
2017-09-17T00:01:47.066Z,2.00
2017-09-17T00:02:47.111Z,1.00
2017-09-17T00:03:47.005Z,7.00
2017-09-17T00:04:47.107Z,1.00
2017-09-17T00:05:47.067Z,6.00
2017-09-17T00:06:47.033Z,3.00
2017-09-17T00:07:47.008Z,1.00
2017-09-17T00:08:47.068Z,2.00
2017-09-17T00:09:47.078Z,2.00
2017-09-17T00:10:47.009Z,2.00
2017-09-17T00:11:47.071Z,3.00
2017-09-17T00:12:47.036Z,3.00
2017-09-17T00:13:47.170Z,1.00
2017-09-17T00:14:47.072Z,1.00
2017-09-17T00:15:47.072Z,2.00
2017-09-17T00:16:47.072Z,6.00
2017-09-17T00:17:47.059Z,2.00
2017-09-17T00:18:47.080Z,4.00
2017-09-17T00:19:47.126Z,1.00
2017-09-17T00:20:47.103Z,2.00
2017-09-17T00:21:47.031Z,6.00
2017-09-17T00:22:47.124Z,3.00
2017-09-17T00:23:47.131Z,1.00
2017-09-17T00:24:47.240Z,3.00
2017-09-17T00:25:47.086Z,1.00
2017-09-17T00:26:47.132Z,5.00
2017-09-17T00:27:47.084Z,1.00
2017-09-17T00:28:47.175Z,2.00
2017-09-17T00:29:47.094Z,2.00
2017-09-17T00:30:47.084Z,2.00
2017-09-17T00:31:47.084Z,3.00
2017-09-17T00:32:47.154Z,2.00
2017-09-17T00:33:47.088Z,3.00
2017-09-17T00:34:47.093Z,7.00
2017-09-17T00:35:47.098Z,1.00
2017-09-17T00:36:47.085Z,3.00
2017-09-17T00:37:47.090Z,7.00
2017-09-17T00:38:47.092Z,2.00
2017-09-17T00:39:47.041Z,5.00
2017-09-17T00:40:47.093Z,4.00
2017-09-17T00:41:47.088Z,1.00
2017-09-17T00:42:47.155Z,6.00
2017-09-17T00:43:47.139Z,4.00
2017-09-17T00:44:47.266Z,1.00
2017-09-17T00:45:47.143Z,1.00
2017-09-17T00:46:47.144Z,2.00
2017-09-17T00:47:47.051Z,2.00
2017-09-17T00:48:47.148Z,1.00
2017-09-17T00:49:47.100Z,3.00
2017-09-17T00:50:47.100Z,4.00
2017-09-17T00:51:47.149Z,1.00
2017-09-17T00:52:47.106Z,3.00
2017-09-17T00:53:47.046Z,5.00
2017-09-17T00:54:47.168Z,3.00
2017-09-17T00:55:47.097Z,1.00
2017-09-17T00:56:47.169Z,7.00
2017-09-17T00:57:47.053Z,2.00
2017-09-17T00:58:47.180Z,1.00
2017-09-17T00:59:47.115Z,6.00
2017-09-17T01:00:47.099Z,2.00
2017-09-17T01:01:47.152Z,1.00
2017-09-17T01:02:47.054Z,7.00
2017-09-17T01:03:47.067Z,1.00
2017-09-17T01:04:47.100Z,1.00
2017-09-17T01:05:47.102Z,3.00
2017-09-17T01:06:47.076Z,3.00
2017-09-17T01:07:47.069Z,2.00
2017-09-17T01:08:47.069Z,1.00
2017-09-17T01:09:47.044Z,3.00
2017-09-17T01:10:47.074Z,3.00
2017-09-17T01:11:47.044Z,2.00
2017-09-17T01:12:47.119Z,1.00
2017-09-17T01:13:47.114Z,4.00
2017-09-17T01:14:47.166Z,1.00
2017-09-17T01:15:47.063Z,2.00
2017-09-17T01:16:47.115Z,2.00
2017-09-17T01:17:47.156Z,1.00
2017-09-17T01:18:47.160Z,3.00
2017-09-17T01:19:47.164Z,1.00
2017-09-17T01:20:47.095Z,2.00
2017-09-17T01:21:47.072Z,3.00
2017-09-17T01:22:47.158Z,4.00
2017-09-17T01:23:47.158Z,1.00
2017-09-17T01:24:47.163Z,3.00
2017-09-17T01:25:47.130Z,1.00
2017-09-17T01:26:47.130Z,2.00
2017-09-17T01:27:47.161Z,2.00
2017-09-17T01:28:47.121Z,2.00
2017-09-17T01:29:47.186Z,2.00
2017-09-17T01:30:47.173Z,3.00
2017-09-17T01:31:47.166Z,1.00
2017-09-17T01:32:47.169Z,3.00
2017-09-17T01:33:47.073Z,2.00
2017-09-17T01:34:47.047Z,2.00
2017-09-17T01:35:47.080Z,3.00
2017-09-17T01:36:47.048Z,4.00
2017-09-17T01:37:47.073Z,4.00
2017-09-17T01:38:47.051Z,2.00
2017-09-17T01:39:47.090Z,2.00
2017-09-17T01:40:47.061Z,3.00
2017-09-17T01:41:47.060Z,2.00
2017-09-17T01:42:47.062Z,3.00
2017-09-17T01:43:47.106Z,2.00
2017-09-17T01:44:47.069Z,1.00
2017-09-17T01:45:47.162Z,2.00
2017-09-17T01:46:47.137Z,1.00
2017-09-17T01:47:47.177Z,1.00
2017-09-17T01:48:47.103Z,2.00
2017-09-17T01:49:47.076Z,2.00
2017-09-17T01:50:47.105Z,2.00
2017-09-17T01:51:47.144Z,1.00
2017-09-17T01:52:47.108Z,4.00
2017-09-17T01:53:47.080Z,2.00
2017-09-17T01:54:47.130Z,2.00
2017-09-17T01:55:47.172Z,4.00
2017-09-17T01:56:47.147Z,3.00
2017-09-17T01:57:47.145Z,4.00
2017-09-17T01:58:47.112Z,3.00
2017-09-17T01:59:47.132Z,2.00
2017-09-17T02:00:47.091Z,2.00
2017-09-17T02:01:47.091Z,3.00
2017-09-17T02:02:47.115Z,3.00
2017-09-17T02:03:47.121Z,4.00
2017-09-17T02:04:47.093Z,3.00
2017-09-17T02:05:47.184Z,2.00
2017-09-17T02:06:47.162Z,2.00
2017-09-17T02:07:47.121Z,3.00
2017-09-17T02:08:47.161Z,2.00
2017-09-17T02:09:47.186Z,2.00
2017-09-17T02:10:47.097Z,3.00
2017-09-17T02:11:47.211Z,2.00
2017-09-17T02:12:47.093Z,1.00
2017-09-17T02:13:47.194Z,3.00
2017-09-17T02:14:47.194Z,1.00
2017-09-17T02:15:47.199Z,3.00
2017-09-17T02:16:47.147Z,2.00
2017-09-17T02:17:47.147Z,1.00
2017-09-17T02:18:47.151Z,3.00
2017-09-17T02:19:47.198Z,1.00
2017-09-17T02:20:47.145Z,2.00
2017-09-17T02:21:47.153Z,2.00
2017-09-17T02:22:47.108Z,1.00
2017-09-17T02:23:47.154Z,3.00
2017-09-17T02:24:47.088Z,1.00
2017-09-17T02:25:47.158Z,0.00
2017-09-17T02:26:47.154Z,1.00
2017-09-17T02:27:47.120Z,4.00
2017-09-17T02:28:47.176Z,3.00
2017-09-17T02:29:47.156Z,2.00
2017-09-17T02:30:47.156Z,3.00
2017-09-17T02:31:47.125Z,3.00
2017-09-17T02:32:47.092Z,2.00
2017-09-17T02:33:47.125Z,2.00
2017-09-17T02:34:47.169Z,2.00
2017-09-17T02:35:47.125Z,1.00
2017-09-17T02:36:47.154Z,1.00
2017-09-17T02:37:47.207Z,2.00
2017-09-17T02:38:47.135Z,1.00
2017-09-17T02:39:47.116Z,1.00
2017-09-17T02:40:47.127Z,4.00
2017-09-17T02:41:47.142Z,2.00
2017-09-17T02:42:47.174Z,3.00
2017-09-17T02:43:47.146Z,4.00
2017-09-17T02:44:47.115Z,2.00
2017-09-17T02:45:47.114Z,1.00
2017-09-17T02:46:47.170Z,2.00
2017-09-17T02:47:47.210Z,3.00
2017-09-17T02:48:47.240Z,2.00
2017-09-17T02:49:47.211Z,2.00
2017-09-17T02:50:47.195Z,2.00
2017-09-17T02:51:47.219Z,1.00
2017-09-17T02:52:47.169Z,2.00
2017-09-17T02:53:47.184Z,4.00
2017-09-17T02:54:47.151Z,2.00
2017-09-17T02:55:47.172Z,3.00
2017-09-17T02:56:47.120Z,1.00
2017-09-17T02:57:47.215Z,2.00
2017-09-17T02:58:47.118Z,3.00
2017-09-17T02:59:47.200Z,3.00
2017-09-17T03:00:47.215Z,4.00
2017-09-17T03:01:47.181Z,2.00
2017-09-17T03:02:47.174Z,3.00
2017-09-17T03:03:47.172Z,2.00
2017-09-17T03:04:47.248Z,4.00
2017-09-17T03:05:47.223Z,2.00
2017-09-17T03:06:47.129Z,1.00
2017-09-17T03:07:47.131Z,2.00
2017-09-17T03:08:47.180Z,3.00
2017-09-17T03:09:47.176Z,2.00
2017-09-17T03:10:47.179Z,1.00
2017-09-17T03:11:47.180Z,5.00
2017-09-17T03:12:47.180Z,2.00
2017-09-17T03:13:47.187Z,1.00
2017-09-17T03:14:47.234Z,5.00
2017-09-17T03:15:47.179Z,2.00
2017-09-17T03:16:47.187Z,1.00
2017-09-17T03:17:47.188Z,1.00
2017-09-17T03:18:47.183Z,1.00
2017-09-17T03:19:47.226Z,1.00
2017-09-17T03:20:47.166Z,1.00
2017-09-17T03:21:47.182Z,1.00
2017-09-17T03:22:47.233Z,2.00
2017-09-17T03:23:47.184Z,3.00
2017-09-17T03:24:47.185Z,5.00
2017-09-17T03:25:47.202Z,2.00
2017-09-17T03:26:47.197Z,1.00
2017-09-17T03:27:47.182Z,2.00
2017-09-17T03:28:47.135Z,3.00
2017-09-17T03:29:47.161Z,3.00
2017-09-17T03:30:47.204Z,3.00
2017-09-17T03:31:47.190Z,2.00
2017-09-17T03:32:47.199Z,4.00
2017-09-17T03:33:47.206Z,2.00
2017-09-17T03:34:47.163Z,3.00
2017-09-17T03:35:47.206Z,4.00
2017-09-17T03:36:47.211Z,3.00
2017-09-17T03:37:47.165Z,2.00
2017-09-17T03:38:47.236Z,3.00
2017-09-17T03:39:47.145Z,3.00
2017-09-17T03:40:47.217Z,3.00
2017-09-17T03:41:47.172Z,1.00
2017-09-17T03:42:47.204Z,1.00
2017-09-17T03:43:47.173Z,3.00
2017-09-17T03:44:47.245Z,1.00
2017-09-17T03:45:47.183Z,2.00
2017-09-17T03:46:47.201Z,2.00
2017-09-17T03:47:47.248Z,2.00
2017-09-17T03:48:47.230Z,2.00
2017-09-17T03:49:47.345Z,3.00
2017-09-17T03:50:47.204Z,2.00
2017-09-17T03:51:47.253Z,2.00
2017-09-17T03:52:47.205Z,3.00
2017-09-17T03:53:47.160Z,3.00
2017-09-17T03:54:47.257Z,2.00
2017-09-17T03:55:47.158Z,1.00
2017-09-17T03:56:47.253Z,3.00
2017-09-17T03:57:47.236Z,3.00
2017-09-17T03:58:47.208Z,3.00
2017-09-17T03:59:47.189Z,4.00
2017-09-17T04:00:47.210Z,1.00
2017-09-17T04:01:47.256Z,2.00
2017-09-17T04:02:47.368Z,3.00
2017-09-17T04:03:47.214Z,2.00
2017-09-17T04:04:47.212Z,1.00
2017-09-17T04:05:47.187Z,1.00
2017-09-17T04:06:47.176Z,1.00
2017-09-17T04:07:47.252Z,2.00
2017-09-17T04:08:47.251Z,2.00
2017-09-17T04:09:47.223Z,0.00
2017-09-17T04:10:47.230Z,1.00
2017-09-17T04:11:47.225Z,2.00
2017-09-17T04:12:47.224Z,1.00
2017-09-17T04:13:47.261Z,4.00
2017-09-17T04:14:47.217Z,1.00
2017-09-17T04:15:47.343Z,2.00
2017-09-17T04:16:47.186Z,4.00
2017-09-17T04:17:47.191Z,2.00
2017-09-17T04:18:47.161Z,1.00
2017-09-17T04:19:47.157Z,1.00
2017-09-17T04:20:47.159Z,3.00
2017-09-17T04:21:47.160Z,1.00
2017-09-17T04:22:47.191Z,3.00
2017-09-17T04:23:47.192Z,2.00
2017-09-17T04:24:47.271Z,3.00
2017-09-17T04:25:47.281Z,2.00
2017-09-17T04:26:47.228Z,2.00
2017-09-17T04:27:47.277Z,3.00
2017-09-17T04:28:47.274Z,2.00
2017-09-17T04:29:47.181Z,1.00
2017-09-17T04:30:47.233Z,3.00
2017-09-17T04:31:47.236Z,4.00
2017-09-17T04:32:47.278Z,3.00
2017-09-17T04:33:47.248Z,0.00
2017-09-17T04:34:47.249Z,2.00
2017-09-17T04:35:47.278Z,2.00
2017-09-17T04:36:47.229Z,3.00
2017-09-17T04:37:47.242Z,3.00
2017-09-17T04:38:47.225Z,3.00
2017-09-17T04:39:47.234Z,3.00
2017-09-17T04:40:47.214Z,1.00
2017-09-17T04:41:47.305Z,5.00
2017-09-17T04:42:47.232Z,2.00
2017-09-17T04:43:47.281Z,5.00
2017-09-17T04:44:47.282Z,2.00
2017-09-17T04:45:47.209Z,3.00
2017-09-17T04:46:47.195Z,2.00
2017-09-17T04:47:47.231Z,2.00
2017-09-17T04:48:47.233Z,2.00
2017-09-17T04:49:47.229Z,5.00
2017-09-17T04:50:47.210Z,2.00
2017-09-17T04:51:47.231Z,2.00
2017-09-17T04:52:47.183Z,1.00
2017-09-17T04:53:47.193Z,1.00
2017-09-17T04:54:47.209Z,4.00
2017-09-17T04:55:47.315Z,2.00
2017-09-17T04:56:47.323Z,3.00
2017-09-17T04:57:47.259Z,2.00
2017-09-17T04:58:47.194Z,2.00
2017-09-17T04:59:47.289Z,4.00
2017-09-17T05:00:47.288Z,2.00
2017-09-17T05:01:47.228Z,4.00
2017-09-17T05:02:47.319Z,2.00
2017-09-17T05:03:47.292Z,2.00
2017-09-17T05:04:47.409Z,1.00
2017-09-17T05:05:47.200Z,2.00
2017-09-17T05:06:47.299Z,4.00
2017-09-17T05:07:47.321Z,2.00
2017-09-17T05:08:47.300Z,2.00
2017-09-17T05:09:47.249Z,5.00
2017-09-17T05:10:47.297Z,3.00
2017-09-17T05:11:47.293Z,2.00
2017-09-17T05:12:47.233Z,1.00
2017-09-17T05:13:47.253Z,3.00
2017-09-17T05:14:47.224Z,3.00
2017-09-17T05:15:47.201Z,7.00
2017-09-17T05:16:47.248Z,7.00
2017-09-17T05:17:47.282Z,1.00
2017-09-17T05:18:47.205Z,2.00
2017-09-17T05:19:47.202Z,1.00
2017-09-17T05:20:47.303Z,0.00
2017-09-17T05:21:47.230Z,8.00
2017-09-17T05:22:47.206Z,2.00
2017-09-17T05:23:47.227Z,6.00
2017-09-17T05:24:47.283Z,2.00
2017-09-17T05:25:47.199Z,1.00
2017-09-17T05:26:47.256Z,6.00
2017-09-17T05:27:47.256Z,1.00
2017-09-17T05:28:47.226Z,2.00
2017-09-17T05:29:47.232Z,2.00
2017-09-17T05:30:47.226Z,3.00
2017-09-17T05:31:47.261Z,2.00
2017-09-17T05:32:47.228Z,5.00
2017-09-17T05:33:47.225Z,1.00
2017-09-17T05:34:47.217Z,1.00
2017-09-17T05:35:47.268Z,1.00
2017-09-17T05:36:47.270Z,2.00
2017-09-17T05:37:47.265Z,6.00
2017-09-17T05:38:47.371Z,3.00
2017-09-17T05:39:47.316Z,7.00
2017-09-17T05:40:47.315Z,7.00
2017-09-17T05:41:47.312Z,5.00
2017-09-17T05:42:47.318Z,1.00
2017-09-17T05:43:47.279Z,6.00
2017-09-17T05:44:47.319Z,7.00
2017-09-17T05:45:47.344Z,7.00
2017-09-17T05:46:47.254Z,2.00
2017-09-17T05:47:47.253Z,1.00
2017-09-17T05:48:47.275Z,2.00
2017-09-17T05:49:47.278Z,6.00
2017-09-17T05:50:47.270Z,5.00
2017-09-17T05:51:47.314Z,1.00
2017-09-17T05:52:47.224Z,2.00
2017-09-17T05:53:47.276Z,1.00
2017-09-17T05:54:47.250Z,2.00
2017-09-17T05:55:47.323Z,6.00
2017-09-17T05:56:47.299Z,2.00
2017-09-17T05:57:47.225Z,1.00
2017-09-17T05:58:47.330Z,6.00
2017-09-17T05:59:47.260Z,4.00
2017-09-17T06:00:47.260Z,2.00
2017-09-17T06:01:47.281Z,8.00
2017-09-17T06:02:47.318Z,3.00
2017-09-17T06:03:47.329Z,5.00
2017-09-17T06:04:47.335Z,5.00
2017-09-17T06:05:47.287Z,8.00
2017-09-17T06:06:47.278Z,3.00
2017-09-17T06:07:47.285Z,6.00
2017-09-17T06:08:47.294Z,1.00
2017-09-17T06:09:47.264Z,3.00
2017-09-17T06:10:47.280Z,5.00
2017-09-17T06:11:47.341Z,1.00
2017-09-17T06:12:47.287Z,3.00
2017-09-17T06:13:47.294Z,1.00
2017-09-17T06:14:47.298Z,3.00
2017-09-17T06:15:47.253Z,0.00
2017-09-17T06:16:47.291Z,3.00
2017-09-17T06:17:47.261Z,6.00
2017-09-17T06:18:47.225Z,2.00
2017-09-17T06:19:47.230Z,0.00
2017-09-17T06:20:47.231Z,2.00
2017-09-17T06:21:47.269Z,6.00
2017-09-17T06:22:47.303Z,9.00
2017-09-17T06:23:47.325Z,3.00
2017-09-17T06:24:47.271Z,6.00
2017-09-17T06:25:47.293Z,3.00
2017-09-17T06:26:47.254Z,2.00
2017-09-17T06:27:47.297Z,1.00
2017-09-17T06:28:47.275Z,3.00
2017-09-17T06:29:47.343Z,5.00
2017-09-17T06:30:47.308Z,0.00
2017-09-17T06:31:47.344Z,2.00
2017-09-17T06:32:47.336Z,2.00
2017-09-17T06:33:47.294Z,1.00
2017-09-17T06:34:47.263Z,5.00
2017-09-17T06:35:47.294Z,1.00
2017-09-17T06:36:47.295Z,1.00
2017-09-17T06:37:47.296Z,2.00
2017-09-17T06:38:47.301Z,2.00
2017-09-17T06:39:47.240Z,1.00
2017-09-17T06:40:47.302Z,1.00
2017-09-17T06:41:47.297Z,3.00
2017-09-17T06:42:47.241Z,2.00
2017-09-17T06:43:47.266Z,3.00
2017-09-17T06:44:47.300Z,1.00
2017-09-17T06:45:47.268Z,2.00
2017-09-17T06:46:47.267Z,1.00
2017-09-17T06:47:47.305Z,2.00
2017-09-17T06:48:47.243Z,1.00
2017-09-17T06:49:47.271Z,4.00
2017-09-17T06:50:47.245Z,1.00
2017-09-17T06:51:47.271Z,2.00
2017-09-17T06:52:47.305Z,1.00
2017-09-17T06:53:47.310Z,5.00
2017-09-17T06:54:47.221Z,1.00
2017-09-17T06:55:47.272Z,1.00
2017-09-17T06:56:47.260Z,3.00
2017-09-17T06:57:47.203Z,1.00
2017-09-17T06:58:47.303Z,1.00
2017-09-17T06:59:47.227Z,1.00
2017-09-17T07:00:47.248Z,0.00
2017-09-17T07:01:47.276Z,1.00
2017-09-17T07:02:47.273Z,1.00
2017-09-17T07:03:47.230Z,2.00
2017-09-17T07:04:47.314Z,0.00
2017-09-17T07:05:47.279Z,1.00
2017-09-17T07:06:47.310Z,2.00
2017-09-17T07:07:47.286Z,1.00
2017-09-17T07:08:47.317Z,1.00
2017-09-17T07:09:47.325Z,1.00
2017-09-17T07:10:47.321Z,2.00
2017-09-17T07:11:47.252Z,1.00
2017-09-17T07:12:47.315Z,2.00
2017-09-17T07:13:47.315Z,3.00
2017-09-17T07:14:47.265Z,3.00
2017-09-17T07:15:47.300Z,4.00
2017-09-17T07:16:47.327Z,2.00
2017-09-17T07:17:47.270Z,2.00
2017-09-17T07:18:47.267Z,4.00
2017-09-17T07:19:47.291Z,3.00
2017-09-17T07:20:47.268Z,1.00
2017-09-17T07:21:47.306Z,4.00
2017-09-17T07:22:47.337Z,2.00
2017-09-17T07:23:47.320Z,2.00
2017-09-17T07:24:47.275Z,1.00
2017-09-17T07:25:47.404Z,3.00
2017-09-17T07:26:47.278Z,2.00
2017-09-17T07:27:47.381Z,2.00
2017-09-17T07:28:47.378Z,4.00
2017-09-17T07:29:47.277Z,1.00
2017-09-17T07:30:47.379Z,2.00
2017-09-17T07:31:47.274Z,2.00
2017-09-17T07:32:47.312Z,1.00
2017-09-17T07:33:47.352Z,1.00
2017-09-17T07:34:47.368Z,4.00
2017-09-17T07:35:47.376Z,1.00
2017-09-17T07:36:47.343Z,2.00
2017-09-17T07:37:47.369Z,1.00
2017-09-17T07:38:47.300Z,1.00
2017-09-17T07:39:47.379Z,3.00
2017-09-17T07:40:47.286Z,1.00
2017-09-17T07:41:47.333Z,2.00
2017-09-17T07:42:47.314Z,1.00
2017-09-17T07:43:47.281Z,2.00
2017-09-17T07:44:47.367Z,3.00
2017-09-17T07:45:47.286Z,3.00
2017-09-17T07:46:47.342Z,1.00
2017-09-17T07:47:47.349Z,2.00
2017-09-17T07:48:47.323Z,1.00
2017-09-17T07:49:47.294Z,0.00
2017-09-17T07:50:47.393Z,1.00
2017-09-17T07:51:47.390Z,2.00
2017-09-17T07:52:47.346Z,1.00
2017-09-17T07:53:47.327Z,1.00
2017-09-17T07:54:47.344Z,1.00
2017-09-17T07:55:47.505Z,2.00
2017-09-17T07:56:47.397Z,1.00
2017-09-17T07:57:47.329Z,0.00
2017-09-17T07:58:47.396Z,1.00
2017-09-17T07:59:47.311Z,2.00
2017-09-17T08:00:47.401Z,2.00
2017-09-17T08:01:47.400Z,1.00
2017-09-17T08:02:47.358Z,1.00
2017-09-17T08:03:47.330Z,2.00
2017-09-17T08:04:47.401Z,1.00
2017-09-17T08:05:47.396Z,2.00
2017-09-17T08:06:47.300Z,1.00
2017-09-17T08:07:47.401Z,2.00
2017-09-17T08:08:47.345Z,1.00
2017-09-17T08:09:47.377Z,1.00
2017-09-17T08:10:47.355Z,1.00
2017-09-17T08:11:47.354Z,2.00
2017-09-17T08:12:47.303Z,2.00
2017-09-17T08:13:47.404Z,1.00
2017-09-17T08:14:47.319Z,3.00
2017-09-17T08:15:47.408Z,1.00
2017-09-17T08:16:47.539Z,0.00
2017-09-17T08:17:47.390Z,3.00
2017-09-17T08:18:47.309Z,1.00
2017-09-17T08:19:47.365Z,2.00
2017-09-17T08:20:47.402Z,3.00
2017-09-17T08:21:47.410Z,1.00
2017-09-17T08:22:47.411Z,1.00
2017-09-17T08:23:47.361Z,1.00
2017-09-17T08:24:47.391Z,2.00
2017-09-17T08:25:47.417Z,0.00
2017-09-17T08:26:47.312Z,2.00
2017-09-17T08:27:47.363Z,1.00
2017-09-17T08:28:47.345Z,1.00
2017-09-17T08:29:47.328Z,1.00
2017-09-17T08:30:47.354Z,2.00
2017-09-17T08:31:47.348Z,2.00
2017-09-17T08:32:47.367Z,2.00
2017-09-17T08:33:47.423Z,1.00
2017-09-17T08:34:47.416Z,1.00
2017-09-17T08:35:47.336Z,4.00
2017-09-17T08:36:47.420Z,3.00
2017-09-17T08:37:47.418Z,1.00
2017-09-17T08:38:47.401Z,2.00
2017-09-17T08:39:47.419Z,1.00
2017-09-17T08:40:47.379Z,1.00
2017-09-17T08:41:47.378Z,1.00
2017-09-17T08:42:47.373Z,2.00
2017-09-17T08:43:47.414Z,1.00
2017-09-17T08:44:47.377Z,6.00
2017-09-17T08:45:47.373Z,2.00
2017-09-17T08:46:47.322Z,6.00
2017-09-17T08:47:47.468Z,1.00
2017-09-17T08:48:47.429Z,1.00
2017-09-17T08:49:47.357Z,1.00
2017-09-17T08:50:47.354Z,1.00
2017-09-17T08:51:47.381Z,1.00
2017-09-17T08:52:47.375Z,1.00
2017-09-17T08:53:47.382Z,1.00
2017-09-17T08:54:47.330Z,1.00
2017-09-17T08:55:47.420Z,6.00
2017-09-17T08:56:47.321Z,1.00
2017-09-17T08:57:47.387Z,2.00
2017-09-17T08:58:47.452Z,4.00
2017-09-17T08:59:47.421Z,2.00
2017-09-17T09:00:47.419Z,1.00
2017-09-17T09:01:47.362Z,0.00
2017-09-17T09:02:47.362Z,1.00
2017-09-17T09:03:47.363Z,6.00
2017-09-17T09:04:47.382Z,2.00
2017-09-17T09:05:47.332Z,1.00
2017-09-17T09:06:47.344Z,1.00
2017-09-17T09:07:47.369Z,5.00
2017-09-17T09:08:47.416Z,2.00
2017-09-17T09:09:47.355Z,7.00
2017-09-17T09:10:47.335Z,1.00
2017-09-17T09:11:47.386Z,1.00
2017-09-17T09:12:47.384Z,8.00
2017-09-17T09:13:47.334Z,2.00
2017-09-17T09:14:47.394Z,0.00
2017-09-17T09:15:47.464Z,2.00
2017-09-17T09:16:47.440Z,1.00
2017-09-17T09:17:47.401Z,1.00
2017-09-17T09:18:47.398Z,1.00
2017-09-17T09:19:47.421Z,1.00
2017-09-17T09:20:47.398Z,0.00
2017-09-17T09:21:47.499Z,1.00
2017-09-17T09:22:47.447Z,6.00
2017-09-17T09:23:47.474Z,0.00
2017-09-17T09:24:47.446Z,6.00
2017-09-17T09:25:47.402Z,2.00
2017-09-17T09:26:47.353Z,3.00
2017-09-17T09:27:47.378Z,0.00
2017-09-17T09:28:47.445Z,1.00
2017-09-17T09:29:47.349Z,0.00
2017-09-17T09:30:47.401Z,1.00
2017-09-17T09:31:47.477Z,2.00
2017-09-17T09:32:47.477Z,8.00
2017-09-17T09:33:47.385Z,8.00
2017-09-17T09:34:47.517Z,2.00
2017-09-17T09:35:47.450Z,2.00
2017-09-17T09:36:47.388Z,2.00
2017-09-17T09:37:47.350Z,3.00
2017-09-17T09:38:47.452Z,11.00
2017-09-17T09:39:47.453Z,5.00
2017-09-17T09:40:47.393Z,5.00
2017-09-17T09:41:47.410Z,18.00
2017-09-17T09:42:47.453Z,10.00
2017-09-17T09:43:47.365Z,19.00
2017-09-17T09:44:47.359Z,10.00
2017-09-17T09:45:47.372Z,20.00
2017-09-17T09:46:47.352Z,19.00
2017-09-17T09:47:47.412Z,9.00
2017-09-17T09:48:47.345Z,25.00
2017-09-17T09:49:47.435Z,12.00
2017-09-17T09:50:47.409Z,10.00
2017-09-17T09:51:47.377Z,24.00
2017-09-17T09:52:47.414Z,11.00
2017-09-17T09:53:47.352Z,13.00
2017-09-17T09:54:47.413Z,14.00
2017-09-17T09:55:47.401Z,20.00
2017-09-17T09:56:47.380Z,13.00
2017-09-17T09:57:47.602Z,6.00
2017-09-17T09:58:47.396Z,4.00
2017-09-17T09:59:47.466Z,5.00
2017-09-17T10:00:47.422Z,12.00
2017-09-17T10:01:47.574Z,12.00
2017-09-17T10:02:47.422Z,13.00
2017-09-17T10:03:47.433Z,12.00
2017-09-17T10:04:47.468Z,14.00
2017-09-17T10:05:47.384Z,25.00
2017-09-17T10:06:47.475Z,11.00
2017-09-17T10:07:47.386Z,13.00
2017-09-17T10:08:47.389Z,18.00
2017-09-17T10:09:47.421Z,11.00
2017-09-17T10:10:47.386Z,8.00
2017-09-17T10:11:47.362Z,11.00
2017-09-17T10:12:47.365Z,9.00
2017-09-17T10:13:47.361Z,10.00
2017-09-17T10:14:47.391Z,11.00
2017-09-17T10:15:47.438Z,10.00
2017-09-17T10:16:47.378Z,11.00
2017-09-17T10:17:47.412Z,6.00
2017-09-17T10:18:47.434Z,13.00
2017-09-17T10:19:47.461Z,9.00
2017-09-17T10:20:47.414Z,9.00
2017-09-17T10:21:47.384Z,13.00
2017-09-17T10:22:47.473Z,17.00
2017-09-17T10:23:47.399Z,18.00
2017-09-17T10:24:47.401Z,15.00
2017-09-17T10:25:47.415Z,15.00
2017-09-17T10:26:47.400Z,15.00
2017-09-17T10:27:47.462Z,21.00
2017-09-17T10:28:47.447Z,15.00
2017-09-17T10:29:47.422Z,14.00
2017-09-17T10:30:47.487Z,14.00
2017-09-17T10:31:47.440Z,14.00
2017-09-17T10:32:47.420Z,20.00
2017-09-17T10:33:47.437Z,13.00
2017-09-17T10:34:47.494Z,29.00
2017-09-17T10:35:47.379Z,17.00
2017-09-17T10:36:47.404Z,14.00
2017-09-17T10:37:47.496Z,12.00
2017-09-17T10:38:47.400Z,24.00
2017-09-17T10:39:47.437Z,29.00
2017-09-17T10:40:47.413Z,28.00
2017-09-17T10:41:47.439Z,18.00
2017-09-17T10:42:47.382Z,16.00
2017-09-17T10:43:47.408Z,15.00
2017-09-17T10:44:47.382Z,29.00
2017-09-17T10:45:47.493Z,23.00
2017-09-17T10:46:47.415Z,14.00
2017-09-17T10:47:47.473Z,19.00
2017-09-17T10:48:47.469Z,15.00
2017-09-17T10:49:47.455Z,15.00
2017-09-17T10:50:47.395Z,15.00
2017-09-17T10:51:47.458Z,25.00
2017-09-17T10:52:47.493Z,22.00
2017-09-17T10:53:47.498Z,23.00
2017-09-17T10:54:47.520Z,18.00
2017-09-17T10:55:47.480Z,16.00
2017-09-17T10:56:47.416Z,15.00
2017-09-17T10:57:47.491Z,29.00
2017-09-17T10:58:47.396Z,14.00
2017-09-17T10:59:47.467Z,27.00
2017-09-17T11:00:47.464Z,14.00
2017-09-17T11:01:47.483Z,16.00
2017-09-17T11:02:47.487Z,17.00
2017-09-17T11:03:47.451Z,15.00
2017-09-17T11:04:47.463Z,12.00
2017-09-17T11:05:47.405Z,15.00
2017-09-17T11:06:47.461Z,16.00
2017-09-17T11:07:47.513Z,16.00
2017-09-17T11:08:47.461Z,14.00
2017-09-17T11:09:47.509Z,17.00
2017-09-17T11:10:47.429Z,27.00
2017-09-17T11:11:47.431Z,16.00
2017-09-17T11:12:47.465Z,14.00
2017-09-17T11:13:47.479Z,27.00
2017-09-17T11:14:47.490Z,14.00
2017-09-17T11:15:47.511Z,27.00
2017-09-17T11:16:47.446Z,15.00
2017-09-17T11:17:47.512Z,26.00
2017-09-17T11:18:47.472Z,16.00
2017-09-17T11:19:47.448Z,11.00
2017-09-17T11:20:47.513Z,14.00
2017-09-17T11:21:47.491Z,15.00
2017-09-17T11:22:47.511Z,25.00
2017-09-17T11:23:47.465Z,18.00
2017-09-17T11:24:47.473Z,16.00
2017-09-17T11:26:47.442Z,11.00
2017-09-17T11:27:47.449Z,18.00
2017-09-17T11:28:47.502Z,15.00
2017-09-17T11:29:47.451Z,16.00
2017-09-17T11:30:47.445Z,27.00
2017-09-17T11:31:47.420Z,15.00
2017-09-17T11:32:47.513Z,21.00
2017-09-17T11:33:47.512Z,16.00
2017-09-17T11:34:47.443Z,17.00
2017-09-17T11:35:47.436Z,15.00
2017-09-17T11:36:47.415Z,16.00
2017-09-17T11:37:47.414Z,15.00
2017-09-17T11:38:47.416Z,28.00
2017-09-17T11:39:47.438Z,27.00
2017-09-17T11:40:47.474Z,17.00
2017-09-17T11:41:47.445Z,11.00
2017-09-17T11:42:47.478Z,13.00
2017-09-17T11:43:47.481Z,13.00
2017-09-17T11:44:47.477Z,16.00
2017-09-17T11:45:47.488Z,14.00
2017-09-17T11:46:47.489Z,15.00
2017-09-17T11:47:47.500Z,30.00
2017-09-17T11:48:47.479Z,16.00
2017-09-17T11:49:47.531Z,18.00
2017-09-17T11:51:47.514Z,26.00
2017-09-17T11:52:47.538Z,23.00
2017-09-17T11:53:47.472Z,17.00
2017-09-17T11:54:47.534Z,16.00
2017-09-17T11:55:47.503Z,25.00
2017-09-17T11:56:47.543Z,26.00
2017-09-17T11:57:47.545Z,14.00
2017-09-17T11:58:47.559Z,18.00
2017-09-17T11:59:47.444Z,27.00
2017-09-17T12:00:47.518Z,17.00
2017-09-17T12:01:47.537Z,16.00
2017-09-17T12:02:47.535Z,13.00
2017-09-17T12:03:47.442Z,16.00
2017-09-17T12:04:47.439Z,15.00
2017-09-17T12:05:47.559Z,15.00
2017-09-17T12:06:47.478Z,13.00
2017-09-17T12:07:47.496Z,19.00
2017-09-17T12:08:47.511Z,26.00
2017-09-17T12:09:47.539Z,15.00
2017-09-17T12:10:47.499Z,20.00
2017-09-17T12:11:47.482Z,18.00
2017-09-17T12:12:47.550Z,17.00
2017-09-17T12:13:47.502Z,17.00
2017-09-17T12:14:47.471Z,18.00
2017-09-17T12:15:47.503Z,16.00
2017-09-17T12:16:47.505Z,14.00
2017-09-17T12:17:47.573Z,18.00
2017-09-17T12:18:47.556Z,27.00
2017-09-17T12:19:47.482Z,15.00
2017-09-17T12:20:47.573Z,15.00
2017-09-17T12:21:47.531Z,16.00
2017-09-17T12:22:47.508Z,22.00
2017-09-17T12:23:47.486Z,16.00
2017-09-17T12:24:47.506Z,10.00
2017-09-17T12:25:47.491Z,16.00
2017-09-17T12:26:47.511Z,17.00
2017-09-17T12:27:47.510Z,15.00
2017-09-17T12:28:47.508Z,15.00
2017-09-17T12:29:47.513Z,21.00
2017-09-17T12:30:47.558Z,14.00
2017-09-17T12:31:47.577Z,16.00
2017-09-17T12:32:47.478Z,12.00
2017-09-17T12:33:47.582Z,17.00
2017-09-17T12:34:47.462Z,17.00
2017-09-17T12:35:47.511Z,17.00
2017-09-17T12:36:47.478Z,28.00
2017-09-17T12:37:47.580Z,28.00
2017-09-17T12:38:47.502Z,26.00
2017-09-17T12:39:47.519Z,24.00
2017-09-17T12:40:47.513Z,15.00
2017-09-17T12:41:47.565Z,18.00
2017-09-17T12:42:47.460Z,15.00
2017-09-17T12:43:47.480Z,18.00
2017-09-17T12:44:47.523Z,11.00
2017-09-17T12:45:47.466Z,17.00
2017-09-17T12:46:47.523Z,29.00
2017-09-17T12:47:47.553Z,27.00
2017-09-17T12:48:47.558Z,16.00
2017-09-17T12:49:47.463Z,19.00
2017-09-17T12:50:47.534Z,3.00
2017-09-17T12:51:47.488Z,1.00
2017-09-17T12:52:47.529Z,1.00
2017-09-17T12:53:47.556Z,1.00
2017-09-17T12:54:47.561Z,3.00
2017-09-17T12:55:47.567Z,5.00
2017-09-17T12:56:47.488Z,2.00
2017-09-17T12:57:47.529Z,2.00
2017-09-17T12:58:47.532Z,1.00
2017-09-17T12:59:47.572Z,0.00
2017-09-17T13:00:47.492Z,1.00
2017-09-17T13:01:47.496Z,0.00
2017-09-17T13:02:47.575Z,1.00
2017-09-17T13:03:47.527Z,1.00
2017-09-17T13:04:47.508Z,2.00
2017-09-17T13:05:47.535Z,1.00
2017-09-17T13:06:47.561Z,5.00
2017-09-17T13:07:47.507Z,6.00
2017-09-17T13:08:47.539Z,0.00
2017-09-17T13:09:47.526Z,6.00
2017-09-17T13:10:47.482Z,1.00
2017-09-17T13:11:47.578Z,1.00
2017-09-17T13:12:47.507Z,1.00
2017-09-17T13:13:47.497Z,1.00
2017-09-17T13:14:47.477Z,6.00